createdAt,value
2017-11-17T00:00:03.384Z,58.96
2017-11-17T00:00:35.149Z,59.01
2017-11-17T00:01:06.804Z,59.06
2017-11-17T00:01:38.442Z,58.97
2017-11-17T00:02:10.107Z,59.00
2017-11-17T00:02:41.731Z,58.96
2017-11-17T00:03:13.376Z,59.01
2017-11-17T00:03:45.008Z,58.97
2017-11-17T00:04:16.635Z,58.95
2017-11-17T00:04:48.283Z,58.97
2017-11-17T00:05:19.926Z,58.98
2017-11-17T00:05:51.874Z,59.03
2017-11-17T00:06:23.525Z,59.03
2017-11-17T00:06:55.389Z,58.98
2017-11-17T00:07:27.112Z,58.99
2017-11-17T00:07:58.739Z,59.00
2017-11-17T00:08:30.388Z,59.11
2017-11-17T00:09:02.030Z,58.95
2017-11-17T00:09:34.031Z,59.00
2017-11-17T00:10:05.659Z,58.97
2017-11-17T00:10:37.283Z,59.00
2017-11-17T00:11:08.907Z,59.14
2017-11-17T00:11:40.531Z,59.13
2017-11-17T00:12:12.192Z,59.07
2017-11-17T00:12:43.860Z,59.07
2017-11-17T00:13:15.487Z,58.99
2017-11-17T00:13:47.121Z,59.04
2017-11-17T00:14:18.756Z,59.22
2017-11-17T00:14:50.397Z,59.17
2017-11-17T00:15:22.042Z,59.23
2017-11-17T00:15:53.683Z,59.22
2017-11-17T00:16:25.326Z,59.25
2017-11-17T00:16:57.024Z,59.30
2017-11-17T00:17:28.651Z,59.26
2017-11-17T00:18:00.314Z,59.25
2017-11-17T00:18:31.948Z,59.22
2017-11-17T00:19:03.584Z,59.26
2017-11-17T00:19:35.215Z,59.28
2017-11-17T00:20:06.847Z,59.27
2017-11-17T00:20:38.479Z,59.25
2017-11-17T00:21:10.111Z,59.24
2017-11-17T00:21:41.751Z,59.26
2017-11-17T00:22:13.619Z,59.24
2017-11-17T00:22:45.244Z,59.23
2017-11-17T00:23:16.979Z,59.45
2017-11-17T00:23:48.621Z,59.46
2017-11-17T00:24:20.259Z,59.50
2017-11-17T00:24:51.904Z,59.59
2017-11-17T00:25:23.542Z,59.61
2017-11-17T00:25:55.186Z,59.52
2017-11-17T00:26:26.831Z,59.48
2017-11-17T00:26:58.468Z,59.39
2017-11-17T00:27:30.111Z,59.41
2017-11-17T00:28:01.755Z,59.42
2017-11-17T00:28:33.420Z,59.36
2017-11-17T00:29:05.047Z,59.37
2017-11-17T00:29:36.681Z,59.39
2017-11-17T00:30:08.324Z,59.36
2017-11-17T00:30:39.965Z,59.43
2017-11-17T00:31:11.607Z,59.43
2017-11-17T00:31:43.249Z,59.43
2017-11-17T00:32:14.915Z,59.30
2017-11-17T00:32:46.539Z,59.44
2017-11-17T00:33:18.176Z,59.42
2017-11-17T00:33:49.851Z,59.40
2017-11-17T00:34:21.476Z,59.44
2017-11-17T00:34:53.407Z,59.49
2017-11-17T00:35:25.051Z,59.48
2017-11-17T00:35:56.689Z,59.59
2017-11-17T00:36:28.330Z,59.40
2017-11-17T00:36:59.975Z,59.40
2017-11-17T00:37:31.617Z,59.43
2017-11-17T00:38:03.258Z,59.46
2017-11-17T00:38:34.901Z,59.43
2017-11-17T00:39:06.598Z,59.52
2017-11-17T00:39:38.468Z,59.40
2017-11-17T00:40:10.096Z,59.50
2017-11-17T00:40:41.723Z,59.46
2017-11-17T00:41:13.359Z,59.44
2017-11-17T00:41:44.984Z,59.61
2017-11-17T00:42:16.608Z,59.55
2017-11-17T00:42:48.343Z,59.55
2017-11-17T00:43:19.981Z,59.63
2017-11-17T00:43:51.628Z,59.55
2017-11-17T00:44:23.295Z,59.53
2017-11-17T00:44:54.925Z,59.57
2017-11-17T00:45:26.555Z,59.67
2017-11-17T00:45:58.193Z,59.64
2017-11-17T00:46:29.837Z,59.66
2017-11-17T00:47:01.478Z,59.62
2017-11-17T00:47:33.120Z,59.65
2017-11-17T00:48:05.069Z,59.71
2017-11-17T00:48:36.709Z,59.66
2017-11-17T00:49:08.352Z,59.84
2017-11-17T00:49:40.020Z,59.57
2017-11-17T00:50:11.642Z,59.66
2017-11-17T00:50:43.280Z,59.76
2017-11-17T00:51:14.921Z,59.80
2017-11-17T00:51:46.559Z,59.76
2017-11-17T00:52:18.202Z,59.84
2017-11-17T00:52:49.844Z,59.91
2017-11-17T00:53:21.487Z,59.82
2017-11-17T00:53:53.129Z,59.94
2017-11-17T00:54:24.770Z,59.82
2017-11-17T00:54:56.440Z,59.83
2017-11-17T00:55:28.063Z,59.96
2017-11-17T00:55:59.698Z,59.91
2017-11-17T00:56:31.337Z,60.07
2017-11-17T00:57:02.983Z,60.00
2017-11-17T00:57:34.621Z,60.08
2017-11-17T00:58:06.265Z,60.15
2017-11-17T00:58:37.904Z,60.14
2017-11-17T00:59:09.549Z,60.23
2017-11-17T00:59:41.188Z,60.39
2017-11-17T01:00:12.833Z,60.37
2017-11-17T01:00:44.472Z,60.43
2017-11-17T01:01:16.116Z,60.51
2017-11-17T01:01:47.758Z,60.34
2017-11-17T01:02:19.400Z,60.69
2017-11-17T01:02:51.044Z,60.50
2017-11-17T01:03:22.685Z,60.66
2017-11-17T01:03:54.572Z,60.58
2017-11-17T01:04:26.200Z,60.64
2017-11-17T01:04:57.824Z,60.71
2017-11-17T01:05:29.492Z,60.63
2017-11-17T01:06:01.116Z,60.83
2017-11-17T01:06:32.747Z,60.76
2017-11-17T01:07:04.485Z,61.03
2017-11-17T01:07:36.127Z,60.89
2017-11-17T01:08:07.884Z,61.03
2017-11-17T01:08:39.512Z,61.16
2017-11-17T01:09:11.167Z,61.18
2017-11-17T01:09:43.002Z,61.20
2017-11-17T01:10:14.654Z,61.23
2017-11-17T01:10:46.327Z,61.22
2017-11-17T01:11:17.952Z,61.10
2017-11-17T01:11:49.579Z,61.22
2017-11-17T01:12:21.213Z,61.29
2017-11-17T01:12:52.853Z,61.48
2017-11-17T01:13:24.492Z,61.29
2017-11-17T01:13:56.140Z,61.24
2017-11-17T01:14:27.776Z,61.36
2017-11-17T01:14:59.420Z,61.25
2017-11-17T01:15:31.062Z,61.24
2017-11-17T01:16:02.731Z,61.17
2017-11-17T01:16:34.359Z,61.22
2017-11-17T01:17:06.233Z,61.35
2017-11-17T01:17:37.859Z,61.46
2017-11-17T01:18:09.494Z,61.20
2017-11-17T01:18:41.123Z,61.16
2017-11-17T01:19:12.864Z,61.17
2017-11-17T01:19:44.504Z,61.26
2017-11-17T01:20:16.144Z,61.19
2017-11-17T01:20:47.776Z,61.16
2017-11-17T01:21:19.449Z,61.25
2017-11-17T01:21:51.084Z,60.98
2017-11-17T01:22:24.883Z,61.11
2017-11-17T01:22:56.563Z,61.15
2017-11-17T01:23:28.199Z,61.06
2017-11-17T01:23:59.838Z,61.34
2017-11-17T01:24:31.476Z,61.28
2017-11-17T01:25:03.103Z,61.22
2017-11-17T01:25:34.727Z,61.05
2017-11-17T01:26:06.666Z,61.15
2017-11-17T01:26:38.331Z,61.05
2017-11-17T01:27:09.979Z,61.03
2017-11-17T01:27:41.608Z,61.14
2017-11-17T01:28:13.240Z,61.08
2017-11-17T01:28:45.074Z,61.00
2017-11-17T01:29:16.827Z,61.21
2017-11-17T01:29:48.457Z,61.08
2017-11-17T01:30:20.105Z,61.04
2017-11-17T01:30:51.747Z,61.13
2017-11-17T01:31:23.388Z,61.08
2017-11-17T01:31:55.055Z,60.97
2017-11-17T01:32:26.679Z,61.07
2017-11-17T01:32:58.626Z,61.14
2017-11-17T01:33:30.263Z,61.14
2017-11-17T01:34:01.905Z,61.11
2017-11-17T01:34:33.548Z,61.06
2017-11-17T01:35:05.190Z,61.02
2017-11-17T01:35:36.830Z,61.08
2017-11-17T01:36:08.476Z,61.08
2017-11-17T01:36:40.121Z,61.10
2017-11-17T01:37:11.758Z,61.07
2017-11-17T01:37:43.405Z,61.04
2017-11-17T01:38:15.271Z,61.01
2017-11-17T01:38:46.894Z,61.10
2017-11-17T01:39:18.635Z,61.19
2017-11-17T01:39:50.276Z,61.17
2017-11-17T01:40:21.916Z,61.09
2017-11-17T01:40:53.557Z,61.08
2017-11-17T01:41:25.202Z,61.07
2017-11-17T01:41:56.841Z,61.19
2017-11-17T01:42:28.507Z,61.01
2017-11-17T01:43:00.136Z,61.12
2017-11-17T01:43:31.771Z,61.05
2017-11-17T01:44:03.409Z,61.11
2017-11-17T01:44:35.055Z,61.25
2017-11-17T01:45:06.695Z,61.41
2017-11-17T01:45:38.337Z,61.23
2017-11-17T01:46:09.979Z,61.19
2017-11-17T01:46:41.622Z,61.20
2017-11-17T01:47:13.263Z,61.26
2017-11-17T01:47:44.927Z,61.26
2017-11-17T01:48:16.555Z,61.40
2017-11-17T01:48:48.191Z,61.20
2017-11-17T01:49:19.827Z,61.09
2017-11-17T01:49:51.473Z,61.13
2017-11-17T01:50:23.111Z,61.18
2017-11-17T01:50:54.756Z,61.03
2017-11-17T01:51:26.435Z,61.20
2017-11-17T01:51:58.059Z,61.26
2017-11-17T01:52:29.688Z,61.14
2017-11-17T01:53:01.355Z,61.09
2017-11-17T01:53:32.979Z,61.04
2017-11-17T01:54:04.915Z,61.08
2017-11-17T01:54:36.556Z,61.06
2017-11-17T01:55:08.506Z,60.98
2017-11-17T01:55:40.152Z,61.14
2017-11-17T01:56:11.784Z,61.07
2017-11-17T01:56:43.438Z,61.08
2017-11-17T01:57:15.075Z,61.12
2017-11-17T01:57:46.728Z,61.08
2017-11-17T01:58:18.395Z,61.07
2017-11-17T01:58:50.023Z,61.08
2017-11-17T01:59:21.651Z,61.04
2017-11-17T01:59:53.483Z,61.01
2017-11-17T02:00:25.232Z,60.99
2017-11-17T02:00:57.181Z,61.07
2017-11-17T02:01:29.131Z,61.09
2017-11-17T02:02:00.901Z,61.27
2017-11-17T02:02:32.527Z,61.31
2017-11-17T02:03:04.363Z,61.21
2017-11-17T02:03:36.036Z,61.27
2017-11-17T02:04:07.659Z,61.25
2017-11-17T02:04:39.300Z,61.29
2017-11-17T02:05:11.167Z,61.22
2017-11-17T02:05:42.795Z,61.18
2017-11-17T02:06:14.551Z,61.25
2017-11-17T02:06:46.183Z,61.21
2017-11-17T02:07:17.812Z,61.23
2017-11-17T02:07:49.439Z,61.25
2017-11-17T02:08:21.087Z,61.33
2017-11-17T02:08:52.759Z,61.26
2017-11-17T02:09:24.388Z,61.38
2017-11-17T02:09:56.323Z,61.34
2017-11-17T02:10:27.962Z,61.35
2017-11-17T02:10:59.606Z,61.28
2017-11-17T02:11:31.245Z,61.26
2017-11-17T02:12:02.892Z,61.45
2017-11-17T02:12:34.535Z,61.43
2017-11-17T02:13:06.171Z,61.38
2017-11-17T02:13:37.814Z,61.47
2017-11-17T02:14:09.455Z,61.37
2017-11-17T02:14:41.097Z,61.60
2017-11-17T02:15:15.520Z,61.53
2017-11-17T02:15:49.442Z,61.61
2017-11-17T02:16:24.372Z,61.60
2017-11-17T02:16:59.718Z,61.55
2017-11-17T02:17:31.870Z,61.57
2017-11-17T02:18:03.496Z,61.87
2017-11-17T02:18:35.132Z,61.82
2017-11-17T02:19:06.756Z,61.72
2017-11-17T02:19:38.472Z,61.66
2017-11-17T02:20:10.115Z,61.63
2017-11-17T02:20:41.754Z,61.84
2017-11-17T02:21:13.705Z,61.87
2017-11-17T02:21:45.344Z,61.83
2017-11-17T02:22:16.986Z,61.77
2017-11-17T02:22:48.630Z,61.97
2017-11-17T02:23:20.272Z,61.77
2017-11-17T02:23:51.911Z,61.90
2017-11-17T02:24:23.581Z,61.83
2017-11-17T02:24:55.208Z,61.92
2017-11-17T02:25:26.840Z,61.98
2017-11-17T02:25:58.479Z,61.83
2017-11-17T02:26:30.129Z,61.99
2017-11-17T02:27:01.770Z,61.93
2017-11-17T02:27:33.408Z,62.07
2017-11-17T02:28:05.050Z,62.07
2017-11-17T02:28:36.693Z,61.88
2017-11-17T02:29:08.331Z,61.85
2017-11-17T02:29:39.994Z,61.93
2017-11-17T02:30:11.626Z,61.80
2017-11-17T02:30:43.260Z,62.01
2017-11-17T02:31:14.898Z,62.02
2017-11-17T02:31:46.854Z,62.04
2017-11-17T02:32:18.505Z,61.81
2017-11-17T02:32:50.137Z,61.97
2017-11-17T02:33:22.083Z,62.06
2017-11-17T02:33:53.722Z,62.03
2017-11-17T02:34:25.366Z,62.05
2017-11-17T02:34:57.035Z,62.22
2017-11-17T02:35:28.664Z,62.01
2017-11-17T02:36:00.401Z,61.99
2017-11-17T02:36:32.243Z,62.08
2017-11-17T02:37:03.881Z,62.00
2017-11-17T02:37:35.522Z,62.19
2017-11-17T02:38:07.167Z,62.10
2017-11-17T02:38:38.807Z,62.26
2017-11-17T02:39:10.448Z,62.09
2017-11-17T02:39:42.085Z,62.01
2017-11-17T02:40:13.780Z,61.99
2017-11-17T02:40:45.420Z,62.16
2017-11-17T02:41:17.052Z,62.21
2017-11-17T02:41:48.688Z,62.10
2017-11-17T02:42:20.329Z,62.08
2017-11-17T02:42:51.960Z,62.21
2017-11-17T02:43:23.592Z,62.08
2017-11-17T02:43:55.228Z,61.95
2017-11-17T02:44:26.869Z,62.03
2017-11-17T02:44:58.514Z,62.02
2017-11-17T02:45:30.464Z,62.13
2017-11-17T02:46:02.100Z,62.10
2017-11-17T02:46:33.742Z,62.03
2017-11-17T02:47:05.384Z,62.05
2017-11-17T02:47:37.026Z,62.08
2017-11-17T02:48:08.668Z,62.08
2017-11-17T02:48:40.313Z,62.03
2017-11-17T02:49:11.957Z,61.95
2017-11-17T02:49:43.599Z,62.00
2017-11-17T02:50:15.245Z,61.86
2017-11-17T02:50:46.917Z,61.86
2017-11-17T02:51:18.557Z,61.96
2017-11-17T02:51:50.187Z,62.01
2017-11-17T02:52:21.813Z,62.01
2017-11-17T02:52:53.449Z,61.92
2017-11-17T02:53:25.091Z,61.94
2017-11-17T02:53:56.746Z,61.93
2017-11-17T02:54:28.379Z,61.88
2017-11-17T02:55:00.245Z,61.89
2017-11-17T02:55:31.871Z,61.85
2017-11-17T02:56:03.607Z,61.94
2017-11-17T02:56:35.249Z,61.89
2017-11-17T02:57:06.887Z,61.76
2017-11-17T02:57:38.514Z,61.76
2017-11-17T02:58:10.175Z,61.75
2017-11-17T02:58:41.814Z,61.81
2017-11-17T02:59:13.461Z,61.74
2017-11-17T02:59:45.097Z,61.78
2017-11-17T03:00:16.760Z,61.67
2017-11-17T03:00:48.395Z,61.71
2017-11-17T03:01:20.068Z,61.79
2017-11-17T03:01:51.691Z,61.75
2017-11-17T03:02:23.315Z,61.75
2017-11-17T03:02:55.259Z,61.75
2017-11-17T03:03:26.900Z,61.75
2017-11-17T03:03:58.540Z,61.71
2017-11-17T03:04:30.180Z,61.71
2017-11-17T03:05:01.852Z,61.75
2017-11-17T03:05:33.704Z,61.74
2017-11-17T03:06:05.332Z,61.59
2017-11-17T03:06:37.003Z,61.70
2017-11-17T03:07:08.635Z,61.71
2017-11-17T03:07:40.263Z,61.75
2017-11-17T03:08:11.887Z,61.81
2017-11-17T03:08:43.627Z,61.77
2017-11-17T03:09:15.270Z,61.74
2017-11-17T03:09:46.898Z,61.74
2017-11-17T03:10:18.550Z,61.70
2017-11-17T03:10:50.198Z,61.71
2017-11-17T03:11:21.835Z,61.62
2017-11-17T03:11:53.512Z,61.63
2017-11-17T03:12:25.135Z,61.68
2017-11-17T03:12:56.768Z,61.59
2017-11-17T03:13:28.405Z,61.46
2017-11-17T03:14:00.046Z,61.53
2017-11-17T03:14:31.686Z,61.59
2017-11-17T03:15:03.327Z,61.55
2017-11-17T03:15:34.967Z,61.55
2017-11-17T03:16:06.615Z,61.69
2017-11-17T03:16:38.252Z,61.60
2017-11-17T03:17:09.923Z,61.66
2017-11-17T03:17:41.548Z,61.62
2017-11-17T03:18:13.451Z,61.65
2017-11-17T03:18:45.080Z,61.70
2017-11-17T03:19:16.707Z,61.70
2017-11-17T03:19:48.330Z,61.66
2017-11-17T03:20:19.956Z,61.68
2017-11-17T03:20:51.697Z,61.71
2017-11-17T03:21:23.336Z,61.75
2017-11-17T03:21:54.988Z,61.72
2017-11-17T03:22:26.663Z,61.64
2017-11-17T03:22:58.691Z,61.59
2017-11-17T03:23:30.521Z,61.68
2017-11-17T03:24:02.160Z,61.65
2017-11-17T03:24:33.807Z,61.63
2017-11-17T03:25:05.445Z,61.61
2017-11-17T03:25:37.087Z,61.71
2017-11-17T03:26:08.728Z,61.58
2017-11-17T03:26:40.383Z,61.69
2017-11-17T03:27:12.015Z,61.71
2017-11-17T03:27:43.687Z,61.90
2017-11-17T03:28:15.327Z,61.63
2017-11-17T03:28:46.954Z,61.59
2017-11-17T03:29:18.818Z,61.81
2017-11-17T03:29:50.448Z,61.81
2017-11-17T03:30:22.076Z,61.67
2017-11-17T03:30:53.817Z,61.82
2017-11-17T03:31:25.457Z,61.77
2017-11-17T03:31:57.094Z,61.85
2017-11-17T03:32:28.737Z,61.75
2017-11-17T03:33:00.382Z,61.79
2017-11-17T03:33:32.022Z,61.87
2017-11-17T03:34:03.664Z,61.81
2017-11-17T03:34:35.305Z,61.83
2017-11-17T03:35:06.949Z,61.88
2017-11-17T03:35:38.591Z,61.81
2017-11-17T03:36:10.231Z,61.83
2017-11-17T03:36:41.879Z,61.84
2017-11-17T03:37:13.518Z,61.66
2017-11-17T03:37:45.157Z,61.74
2017-11-17T03:38:16.828Z,61.72
2017-11-17T03:38:48.456Z,61.73
2017-11-17T03:39:20.700Z,61.81
2017-11-17T03:39:52.581Z,61.77
2017-11-17T03:40:24.203Z,61.71
2017-11-17T03:40:55.933Z,61.75
2017-11-17T03:41:27.572Z,61.68
2017-11-17T03:41:59.216Z,61.79
2017-11-17T03:42:30.859Z,61.85
2017-11-17T03:43:02.496Z,61.73
2017-11-17T03:43:34.171Z,61.84
2017-11-17T03:44:05.795Z,61.75
2017-11-17T03:44:37.625Z,61.63
2017-11-17T03:45:09.376Z,61.63
2017-11-17T03:45:41.023Z,61.90
2017-11-17T03:46:12.664Z,61.93
2017-11-17T03:46:44.300Z,61.85
2017-11-17T03:47:15.940Z,61.68
2017-11-17T03:47:47.581Z,61.71
2017-11-17T03:48:19.218Z,61.68
2017-11-17T03:48:50.888Z,61.77
2017-11-17T03:49:22.516Z,61.69
2017-11-17T03:49:54.149Z,61.76
2017-11-17T03:50:25.795Z,61.73
2017-11-17T03:50:57.433Z,61.65
2017-11-17T03:51:29.076Z,61.59
2017-11-17T03:52:00.725Z,61.66
2017-11-17T03:52:32.668Z,61.84
2017-11-17T03:53:04.309Z,61.87
2017-11-17T03:53:35.952Z,61.97
2017-11-17T03:54:07.619Z,61.85
2017-11-17T03:54:39.247Z,61.96
2017-11-17T03:55:10.879Z,61.91
2017-11-17T03:55:42.521Z,61.96
2017-11-17T03:56:14.160Z,61.97
2017-11-17T03:56:45.802Z,61.98
2017-11-17T03:57:17.447Z,62.03
2017-11-17T03:57:49.085Z,61.98
2017-11-17T03:58:20.730Z,61.99
2017-11-17T03:58:52.371Z,62.09
2017-11-17T03:59:24.044Z,62.05
2017-11-17T03:59:55.674Z,62.03
2017-11-17T04:00:27.304Z,62.12
2017-11-17T04:00:59.247Z,62.03
2017-11-17T04:01:30.888Z,62.04
2017-11-17T04:02:02.528Z,62.01
2017-11-17T04:02:34.168Z,62.07
2017-11-17T04:03:05.811Z,61.96
2017-11-17T04:03:37.456Z,62.04
2017-11-17T04:04:09.095Z,62.05
2017-11-17T04:04:40.767Z,62.01
2017-11-17T04:05:12.394Z,62.02
2017-11-17T04:05:44.261Z,61.96
2017-11-17T04:06:15.887Z,61.93
2017-11-17T04:06:47.516Z,61.91
2017-11-17T04:07:19.260Z,61.95
2017-11-17T04:07:51.206Z,61.92
2017-11-17T04:08:22.856Z,61.84
2017-11-17T04:08:54.494Z,61.97
2017-11-17T04:09:26.438Z,61.98
2017-11-17T04:09:58.078Z,61.93
2017-11-17T04:10:29.719Z,61.99
2017-11-17T04:11:01.364Z,61.98
2017-11-17T04:11:33.006Z,62.07
2017-11-17T04:12:04.655Z,61.93
2017-11-17T04:12:36.303Z,61.96
2017-11-17T04:13:08.239Z,61.91
2017-11-17T04:13:39.878Z,61.84
2017-11-17T04:14:11.523Z,61.91
2017-11-17T04:14:43.187Z,61.95
2017-11-17T04:15:14.811Z,62.03
2017-11-17T04:15:46.445Z,62.06
2017-11-17T04:16:18.087Z,62.00
2017-11-17T04:16:49.732Z,62.00
2017-11-17T04:17:21.373Z,62.04
2017-11-17T04:17:53.014Z,61.96
2017-11-17T04:18:24.662Z,61.95
2017-11-17T04:18:56.297Z,62.02
2017-11-17T04:19:27.942Z,62.15
2017-11-17T04:19:59.618Z,62.18
2017-11-17T04:20:31.248Z,62.09
2017-11-17T04:21:02.883Z,62.08
2017-11-17T04:21:34.531Z,62.15
2017-11-17T04:22:06.164Z,62.12
2017-11-17T04:22:37.798Z,62.21
2017-11-17T04:23:09.434Z,62.27
2017-11-17T04:23:41.074Z,62.21
2017-11-17T04:24:12.717Z,62.21
2017-11-17T04:24:44.360Z,62.37
2017-11-17T04:25:16.032Z,62.69
2017-11-17T04:25:47.662Z,62.51
2017-11-17T04:26:19.290Z,62.44
2017-11-17T04:26:50.925Z,62.64
2017-11-17T04:27:22.567Z,62.46
2017-11-17T04:27:54.211Z,62.56
2017-11-17T04:28:25.853Z,62.65
2017-11-17T04:28:57.493Z,62.54
2017-11-17T04:29:29.136Z,62.38
2017-11-17T04:30:00.781Z,62.39
2017-11-17T04:30:32.448Z,62.45
2017-11-17T04:31:04.071Z,62.45
2017-11-17T04:31:35.704Z,62.68
2017-11-17T04:32:07.347Z,62.45
2017-11-17T04:32:38.989Z,62.60
2017-11-17T04:33:10.628Z,62.52
2017-11-17T04:33:42.273Z,62.53
2017-11-17T04:34:13.914Z,62.54
2017-11-17T04:34:45.554Z,62.54
2017-11-17T04:35:17.184Z,62.57
2017-11-17T04:35:48.859Z,62.55
2017-11-17T04:36:20.720Z,62.65
2017-11-17T04:36:52.343Z,62.63
2017-11-17T04:37:24.073Z,62.71
2017-11-17T04:37:55.713Z,62.69
2017-11-17T04:38:27.354Z,62.75
2017-11-17T04:38:58.984Z,62.81
2017-11-17T04:39:30.642Z,62.74
2017-11-17T04:40:02.283Z,62.69
2017-11-17T04:40:33.919Z,62.65
2017-11-17T04:41:05.592Z,62.71
2017-11-17T04:41:37.216Z,62.71
2017-11-17T04:42:08.851Z,62.67
2017-11-17T04:42:40.496Z,62.55
2017-11-17T04:43:12.136Z,62.64
2017-11-17T04:43:43.777Z,62.69
2017-11-17T04:44:15.419Z,62.63
2017-11-17T04:44:47.060Z,62.63
2017-11-17T04:45:18.699Z,62.59
2017-11-17T04:45:50.344Z,62.59
2017-11-17T04:46:22.010Z,62.50
2017-11-17T04:46:53.635Z,62.42
2017-11-17T04:47:25.472Z,62.53
2017-11-17T04:47:57.219Z,62.53
2017-11-17T04:48:28.860Z,62.58
2017-11-17T04:49:00.502Z,62.62
2017-11-17T04:49:32.128Z,62.44
2017-11-17T04:50:03.784Z,62.40
2017-11-17T04:50:35.433Z,62.36
2017-11-17T04:51:07.066Z,62.32
2017-11-17T04:51:38.719Z,62.23
2017-11-17T04:52:10.624Z,62.33
2017-11-17T04:52:42.252Z,62.30
2017-11-17T04:53:13.894Z,62.26
2017-11-17T04:53:45.539Z,62.41
2017-11-17T04:54:17.171Z,62.31
2017-11-17T04:54:48.799Z,62.23
2017-11-17T04:55:20.427Z,62.23
2017-11-17T04:55:52.155Z,62.18
2017-11-17T04:56:23.794Z,62.17
2017-11-17T04:56:55.464Z,62.12
2017-11-17T04:57:27.088Z,62.15
2017-11-17T04:57:58.723Z,62.13
2017-11-17T04:58:30.355Z,62.21
2017-11-17T04:59:02.015Z,62.17
2017-11-17T04:59:33.647Z,62.09
2017-11-17T05:00:05.340Z,62.05
2017-11-17T05:00:36.983Z,62.23
2017-11-17T05:01:08.612Z,62.29
2017-11-17T05:01:40.234Z,62.12
2017-11-17T05:02:11.907Z,62.08
2017-11-17T05:02:43.540Z,61.83
2017-11-17T05:03:15.163Z,61.87
2017-11-17T05:03:46.792Z,61.30
2017-11-17T05:04:18.539Z,60.91
2017-11-17T05:04:50.374Z,60.92
2017-11-17T05:05:22.020Z,60.43
2017-11-17T05:05:53.668Z,59.98
2017-11-17T05:06:25.298Z,59.89
2017-11-17T05:06:56.949Z,59.89
2017-11-17T05:07:28.625Z,59.91
2017-11-17T05:08:00.256Z,60.00
2017-11-17T05:08:31.884Z,59.99
2017-11-17T05:09:03.511Z,60.17
2017-11-17T05:09:35.150Z,60.16
2017-11-17T05:10:06.793Z,60.26
2017-11-17T05:10:38.432Z,60.42
2017-11-17T05:11:10.064Z,60.50
2017-11-17T05:11:41.716Z,60.50
2017-11-17T05:12:13.360Z,60.64
2017-11-17T05:12:45.031Z,60.69
2017-11-17T05:13:16.656Z,60.73
2017-11-17T05:13:48.594Z,60.86
2017-11-17T05:14:20.231Z,61.05
2017-11-17T05:14:51.874Z,61.19
2017-11-17T05:15:23.514Z,61.21
2017-11-17T05:15:55.161Z,61.20
2017-11-17T05:16:26.803Z,61.29
2017-11-17T05:16:58.445Z,61.43
2017-11-17T05:17:30.086Z,61.35
2017-11-17T05:18:01.756Z,61.36
2017-11-17T05:18:33.384Z,61.32
2017-11-17T05:19:05.245Z,61.44
2017-11-17T05:19:36.871Z,61.40
2017-11-17T05:20:08.604Z,61.47
2017-11-17T05:20:40.490Z,61.62
2017-11-17T05:21:12.119Z,61.59
2017-11-17T05:21:43.744Z,61.55
2017-11-17T05:22:15.477Z,61.47
2017-11-17T05:22:47.147Z,61.74
2017-11-17T05:23:18.815Z,62.01
2017-11-17T05:23:50.441Z,61.93
2017-11-17T05:24:22.067Z,61.92
2017-11-17T05:24:53.691Z,61.98
2017-11-17T05:25:25.353Z,62.05
2017-11-17T05:25:56.971Z,61.91
2017-11-17T05:26:28.599Z,61.96
2017-11-17T05:27:00.253Z,62.05
2017-11-17T05:27:31.894Z,62.07
2017-11-17T05:28:03.537Z,62.01
2017-11-17T05:28:35.178Z,61.99
2017-11-17T05:29:06.820Z,61.91
2017-11-17T05:29:38.468Z,62.02
2017-11-17T05:30:10.107Z,62.19
2017-11-17T05:30:41.749Z,62.19
2017-11-17T05:31:13.388Z,62.01
2017-11-17T05:31:45.033Z,62.03
2017-11-17T05:32:16.673Z,62.22
2017-11-17T05:32:48.313Z,62.49
2017-11-17T05:33:19.956Z,62.21
2017-11-17T05:33:51.628Z,62.24
2017-11-17T05:34:23.255Z,62.19
2017-11-17T05:34:54.887Z,62.29
2017-11-17T05:35:26.522Z,62.25
2017-11-17T05:35:58.168Z,62.22
2017-11-17T05:36:29.807Z,62.21
2017-11-17T05:37:01.449Z,62.21
2017-11-17T05:37:33.092Z,62.15
2017-11-17T05:38:04.740Z,62.14
2017-11-17T05:38:36.377Z,62.06
2017-11-17T05:39:08.045Z,62.14
2017-11-17T05:39:39.679Z,62.38
2017-11-17T05:40:11.610Z,62.20
2017-11-17T05:40:43.248Z,62.35
2017-11-17T05:41:14.894Z,62.46
2017-11-17T05:41:46.538Z,62.49
2017-11-17T05:42:18.179Z,62.53
2017-11-17T05:42:49.809Z,62.57
2017-11-17T05:43:21.458Z,62.53
2017-11-17T05:43:53.100Z,62.54
2017-11-17T05:44:24.767Z,62.63
2017-11-17T05:44:56.392Z,62.60
2017-11-17T05:45:28.028Z,62.55
2017-11-17T05:45:59.671Z,62.67
2017-11-17T05:46:31.310Z,62.65
2017-11-17T05:47:02.940Z,62.71
2017-11-17T05:47:34.571Z,62.78
2017-11-17T05:48:06.241Z,62.75
2017-11-17T05:48:37.881Z,62.71
2017-11-17T05:49:09.519Z,62.83
2017-11-17T05:49:41.200Z,62.79
2017-11-17T05:50:12.824Z,62.88
2017-11-17T05:50:44.757Z,62.85
2017-11-17T05:51:16.394Z,63.03
2017-11-17T05:51:48.037Z,63.19
2017-11-17T05:52:19.678Z,63.08
2017-11-17T05:52:51.320Z,63.15
2017-11-17T05:53:22.969Z,63.12
2017-11-17T05:53:54.610Z,63.03
2017-11-17T05:54:26.555Z,63.25
2017-11-17T05:54:58.223Z,63.07
2017-11-17T05:55:29.848Z,63.15
2017-11-17T05:56:01.791Z,63.19
2017-11-17T05:56:33.440Z,63.16
2017-11-17T05:57:05.309Z,63.17
2017-11-17T05:57:36.939Z,63.14
2017-11-17T05:58:08.564Z,63.18
2017-11-17T05:58:40.305Z,63.15
2017-11-17T05:59:11.944Z,63.08
2017-11-17T05:59:43.587Z,63.21
2017-11-17T06:00:15.260Z,63.26
2017-11-17T06:00:46.883Z,63.43
2017-11-17T06:01:18.514Z,63.34
2017-11-17T06:01:50.156Z,63.34
2017-11-17T06:02:21.806Z,63.23
2017-11-17T06:02:53.440Z,63.37
2017-11-17T06:03:25.078Z,63.31
2017-11-17T06:03:56.721Z,63.35
2017-11-17T06:04:28.366Z,63.31
2017-11-17T06:05:00.006Z,63.27
2017-11-17T06:05:31.682Z,63.33
2017-11-17T06:06:03.303Z,63.54
2017-11-17T06:06:34.936Z,63.25
2017-11-17T06:07:06.572Z,63.27
2017-11-17T06:07:38.215Z,63.39
2017-11-17T06:08:09.861Z,63.34
2017-11-17T06:08:41.808Z,63.36
2017-11-17T06:09:13.449Z,63.21
2017-11-17T06:09:45.090Z,63.30
2017-11-17T06:10:16.734Z,63.20
2017-11-17T06:10:48.399Z,63.24
2017-11-17T06:11:20.023Z,63.36
2017-11-17T06:11:51.670Z,63.32
2017-11-17T06:12:23.307Z,63.34
2017-11-17T06:12:55.137Z,63.44
2017-11-17T06:13:27.460Z,63.44
2017-11-17T06:14:00.482Z,63.52
2017-11-17T06:14:32.182Z,63.46
2017-11-17T06:15:03.815Z,63.47
2017-11-17T06:15:35.451Z,63.48
2017-11-17T06:16:07.123Z,63.64
2017-11-17T06:16:38.758Z,63.71
2017-11-17T06:17:10.383Z,63.66
2017-11-17T06:17:42.011Z,63.70
2017-11-17T06:18:13.634Z,63.69
2017-11-17T06:18:45.263Z,63.77
2017-11-17T06:19:17.093Z,63.50
2017-11-17T06:19:48.743Z,63.54
2017-11-17T06:20:20.372Z,63.67
2017-11-17T06:20:52.027Z,63.53
2017-11-17T06:21:23.696Z,63.67
2017-11-17T06:21:55.319Z,63.53
2017-11-17T06:22:26.943Z,63.62
2017-11-17T06:22:58.598Z,63.56
2017-11-17T06:23:30.245Z,63.59
2017-11-17T06:24:01.890Z,63.50
2017-11-17T06:24:33.566Z,63.39
2017-11-17T06:25:05.195Z,63.35
2017-11-17T06:25:36.820Z,63.36
2017-11-17T06:26:08.766Z,63.43
2017-11-17T06:26:40.441Z,63.35
2017-11-17T06:27:12.071Z,63.37
2017-11-17T06:27:43.694Z,63.32
2017-11-17T06:28:15.631Z,63.30
2017-11-17T06:28:47.273Z,63.27
2017-11-17T06:29:18.899Z,63.23
2017-11-17T06:29:50.555Z,63.22
2017-11-17T06:30:22.197Z,63.25
2017-11-17T06:30:53.837Z,63.35
2017-11-17T06:31:25.482Z,63.43
2017-11-17T06:31:57.148Z,63.39
2017-11-17T06:32:28.775Z,63.50
2017-11-17T06:33:00.656Z,63.70
2017-11-17T06:33:32.281Z,63.54
2017-11-17T06:34:03.913Z,63.69
2017-11-17T06:34:35.543Z,63.67
2017-11-17T06:35:07.283Z,63.71
2017-11-17T06:35:38.924Z,63.58
2017-11-17T06:36:10.567Z,63.52
2017-11-17T06:36:42.237Z,63.58
2017-11-17T06:37:13.907Z,63.70
2017-11-17T06:37:45.545Z,63.52
2017-11-17T06:38:17.174Z,63.57
2017-11-17T06:38:48.802Z,63.58
2017-11-17T06:39:20.429Z,63.57
2017-11-17T06:39:52.259Z,63.45
2017-11-17T06:40:24.013Z,63.32
2017-11-17T06:40:55.656Z,63.34
2017-11-17T06:41:27.599Z,63.55
2017-11-17T06:41:59.240Z,63.41
2017-11-17T06:42:30.887Z,63.31
2017-11-17T06:43:02.525Z,63.23
2017-11-17T06:43:34.169Z,63.21
2017-11-17T06:44:05.809Z,63.18
2017-11-17T06:44:37.440Z,63.26
2017-11-17T06:45:09.093Z,63.23
2017-11-17T06:45:40.735Z,63.13
2017-11-17T06:46:12.376Z,63.26
2017-11-17T06:46:44.018Z,63.21
2017-11-17T06:47:15.662Z,63.23
2017-11-17T06:47:47.332Z,63.09